Time;durP1;ratioP1;P1;durP2;ratioP2;P2;SDS_P1;SDS_P2;PMS_P1;PMS_P2;Temp;Humidity;BMP_temperature;BMP_pressure;BME280_temperature;BME280_humidity;BME280_pressure;Samples;Min_cycle;Max_cycle;Signal;HPM_P1;HPM_P2
2022/04/21 00:01:24;;;;;;;8.23;6.30;;;10.60;40.40;;;;;;5076905;28;20618;-41
2022/04/21 00:03:50;;;;;;;7.50;6.80;;;10.60;40.50;;;;;;5077064;28;20196;-41
2022/04/21 00:06:16;;;;;;;6.47;5.87;;;10.50;40.70;;;;;;5076179;28;20494;-40
2022/04/21 00:08:42;;;;;;;7.80;7.10;;;10.50;40.80;;;;;;5075430;28;20290;-41
2022/04/21 00:11:07;;;;;;;8.97;7.00;;;10.50;41.10;;;;;;5076145;28;20845;-41
2022/04/21 00:13:34;;;;;;;7.10;6.40;;;10.50;41.10;;;;;;5076102;28;20555;-42
2022/04/21 00:16:00;;;;;;;7.47;6.83;;;10.40;41.30;;;;;;5075641;28;20397;-39
2022/04/21 00:18:25;;;;;;;6.47;5.90;;;10.40;41.40;;;;;;5076118;28;20405;-38
2022/04/21 00:20:51;;;;;;;7.57;6.80;;;10.40;41.60;;;;;;5076244;28;20439;-42
2022/04/21 00:23:29;;;;;;;7.57;6.87;;;10.40;41.80;;;;;;5075288;28;20189;-40
2022/04/21 00:26:00;;;;;;;7.30;6.57;;;10.30;41.80;;;;;;5076198;28;20479;-39
2022/04/21 00:28:28;;;;;;;7.70;7.00;;;10.30;41.90;;;;;;5078843;28;20416;-37
2022/04/21 00:30:54;;;;;;;7.03;6.33;;;10.30;42.10;;;;;;5078972;28;20558;-39
2022/04/21 00:33:20;;;;;;;8.17;7.37;;;10.30;42.20;;;;;;5079498;28;20908;-39
2022/04/21 00:35:46;;;;;;;6.97;6.37;;;10.20;42.30;;;;;;5079487;28;20437;-42
2022/04/21 00:38:11;;;;;;;7.20;6.60;;;10.20;42.40;;;;;;5062211;28;20797;-38
2022/04/21 00:40:37;;;;;;;7.10;6.47;;;10.20;42.50;;;;;;5079747;28;20471;-38
2022/04/21 00:43:03;;;;;;;7.87;7.17;;;10.10;42.50;;;;;;5080207;28;20185;-40
2022/04/21 00:45:29;;;;;;;7.97;7.27;;;10.10;42.60;;;;;;5080030;28;20538;-37
2022/04/21 00:47:56;;;;;;;7.43;6.83;;;10.10;42.60;;;;;;5080210;28;20186;-39
2022/04/21 00:50:30;;;;;;;7.50;6.20;;;10.10;42.60;;;;;;5080134;28;20230;-38
2022/04/21 00:52:57;;;;;;;7.70;7.00;;;10.10;42.70;;;;;;5080619;28;20462;-41
2022/04/21 00:55:23;;;;;;;6.87;6.03;;;10.10;42.80;;;;;;5081091;28;20416;-39
2022/04/21 00:57:51;;;;;;;7.43;6.50;;;10.00;42.80;;;;;;5082625;28;20418;-41
2022/04/21 01:00:17;;;;;;;6.70;6.10;;;10.00;42.90;;;;;;5082556;28;20427;-40
2022/04/21 01:02:46;;;;;;;7.20;6.50;;;10.00;42.80;;;;;;5082291;28;20456;-39
2022/04/21 01:05:26;;;;;;;7.13;6.13;;;10.00;42.80;;;;;;5081483;28;20427;-41
2022/04/21 01:08:02;;;;;;;6.90;6.30;;;10.00;42.80;;;;;;5079781;28;20913;-40
2022/04/21 01:10:29;;;;;;;7.40;6.70;;;9.90;43.60;;;;;;5062485;28;20761;-40
2022/04/21 01:12:55;;;;;;;6.93;6.27;;;9.90;43.60;;;;;;5079862;28;20478;-38
2022/04/21 01:15:21;;;;;;;6.53;6.03;;;9.90;43.60;;;;;;5062259;28;20465;-39
2022/04/21 01:18:11;;;;;;;8.20;6.53;;;9.80;43.60;;;;;;5079815;28;20420;-40
2022/04/21 01:20:37;;;;;;;6.13;5.63;;;9.80;43.70;;;;;;5079183;28;20485;-38
2022/04/21 01:23:03;;;;;;;7.43;6.80;;;9.80;43.80;;;;;;5079247;28;20810;-41
2022/04/21 01:25:39;;;;;;;7.90;7.10;;;9.80;43.90;;;;;;5079080;28;20181;-40
2022/04/21 01:28:05;;;;;;;7.10;6.50;;;9.80;44.00;;;;;;5079139;28;20189;-40
2022/04/21 01:30:31;;;;;;;6.93;6.30;;;9.70;44.00;;;;;;5079251;28;20701;-39
2022/04/21 01:32:56;;;;;;;7.00;6.40;;;9.70;44.20;;;;;;5079454;28;20469;-39
2022/04/21 01:35:22;;;;;;;7.00;6.23;;;9.70;44.30;;;;;;5080056;28;20201;-39
2022/04/21 01:43:27;;;;;;;7.10;6.50;;;9.60;44.60;;;;;;5078737;28;20450;-40
2022/04/21 01:45:53;;;;;;;6.93;6.33;;;9.60;44.70;;;;;;5079403;28;20957;-39
2022/04/21 01:48:19;;;;;;;7.20;6.50;;;9.50;44.70;;;;;;5078745;28;20430;-39
2022/04/21 01:50:45;;;;;;;11.87;6.80;;;9.50;44.90;;;;;;5078913;28;20268;-37
2022/04/21 01:53:10;;;;;;;7.20;6.50;;;9.40;44.90;;;;;;5078592;28;20761;-42
2022/04/21 01:55:36;;;;;;;7.20;6.50;;;9.40;45.00;;;;;;5079026;28;20444;-40
2022/04/21 01:58:02;;;;;;;6.83;6.23;;;9.40;45.10;;;;;;5078530;28;20196;-39
2022/04/21 02:00:28;;;;;;;6.90;6.27;;;9.30;45.20;;;;;;5078690;28;20750;-39
2022/04/21 02:02:54;;;;;;;6.67;6.07;;;9.30;45.30;;;;;;5078496;28;20255;-41
2022/04/21 02:05:19;;;;;;;7.90;7.20;;;9.30;45.50;;;;;;5079084;28;20199;-41
2022/04/21 02:07:46;;;;;;;8.23;7.43;;;9.20;45.60;;;;;;5078392;28;20196;-41
2022/04/21 02:10:13;;;;;;;7.53;6.83;;;9.20;45.80;;;;;;5079123;28;20193;-42
2022/04/21 02:12:39;;;;;;;8.20;7.50;;;9.10;46.00;;;;;;5078419;28;20468;-39
2022/04/21 02:15:06;;;;;;;8.30;7.60;;;9.10;46.30;;;;;;5079424;28;20432;-39
2022/04/21 02:17:33;;;;;;;8.63;7.70;;;9.10;46.60;;;;;;5079782;28;20196;-39
2022/04/21 02:19:59;;;;;;;7.90;7.20;;;9.00;46.90;;;;;;5078852;28;20520;-39
2022/04/21 02:22:25;;;;;;;9.30;8.40;;;9.00;47.20;;;;;;5079232;28;20507;-39
2022/04/21 02:24:51;;;;;;;8.40;7.60;;;9.00;47.60;;;;;;5077993;28;20431;-39
2022/04/21 02:27:17;;;;;;;9.10;8.00;;;9.00;47.80;;;;;;5078170;28;20485;-38
2022/04/21 02:29:42;;;;;;;8.37;7.67;;;8.90;47.90;;;;;;5078242;28;20200;-41
2022/04/21 02:32:08;;;;;;;9.43;7.83;;;9.00;48.20;;;;;;5078507;28;20245;-39
2022/04/21 02:34:34;;;;;;;9.20;8.30;;;8.90;48.30;;;;;;5078018;28;20187;-39
2022/04/21 02:37:00;;;;;;;8.40;7.60;;;8.90;48.70;;;;;;5078222;28;20193;-38
2022/04/21 02:39:25;;;;;;;11.40;8.93;;;8.90;48.90;;;;;;5076642;28;20428;-38
2022/04/21 02:41:51;;;;;;;9.13;8.23;;;8.90;49.10;;;;;;5077637;28;20566;-47
2022/04/21 02:44:17;;;;;;;9.17;8.37;;;8.80;49.30;;;;;;5077163;28;20300;-47
2022/04/21 02:46:43;;;;;;;9.20;8.40;;;8.80;49.40;;;;;;5077939;28;20231;-47
2022/04/21 02:49:09;;;;;;;9.37;8.60;;;8.80;49.60;;;;;;5076112;28;20777;-46
2022/04/21 02:51:34;;;;;;;9.80;8.90;;;8.80;50.00;;;;;;5076590;28;20366;-47
2022/04/21 02:59:29;;;;;;;10.37;9.47;;;8.70;50.80;;;;;;5075903;28;20505;-47
2022/04/21 03:01:54;;;;;;;9.73;8.80;;;8.70;50.90;;;;;;5076117;28;20513;-47
2022/04/21 03:04:20;;;;;;;9.13;8.33;;;8.70;51.10;;;;;;5058728;28;20766;-46
2022/04/21 03:06:46;;;;;;;10.33;9.33;;;8.60;51.10;;;;;;5077454;28;20198;-47
2022/04/21 03:09:12;;;;;;;9.77;8.87;;;8.60;51.10;;;;;;5076881;28;20883;-47
2022/04/21 03:11:38;;;;;;;9.80;8.90;;;8.60;51.10;;;;;;5077020;28;20226;-46
2022/04/21 03:14:03;;;;;;;8.97;8.17;;;8.60;51.30;;;;;;5076448;28;20551;-47
2022/04/21 03:16:29;;;;;;;9.47;8.53;;;8.50;51.40;;;;;;5077654;28;20420;-47
2022/04/21 03:18:55;;;;;;;11.30;10.10;;;8.50;51.60;;;;;;5077534;28;20228;-47
2022/04/21 03:24:20;;;;;;;9.10;8.30;;;8.40;51.80;;;;;;5076598;28;20190;-47
2022/04/21 03:26:50;;;;;;;10.87;9.97;;;8.40;51.90;;;;;;5077663;28;20423;-47
2022/04/21 03:29:16;;;;;;;10.57;9.50;;;8.30;52.10;;;;;;5077125;28;20435;-47
2022/04/21 03:31:44;;;;;;;11.20;10.03;;;8.30;52.30;;;;;;5076525;28;20611;-46
2022/04/21 03:34:12;;;;;;;10.37;9.30;;;8.30;52.60;;;;;;5076287;28;20188;-47
2022/04/21 03:36:38;;;;;;;10.50;9.50;;;8.30;52.80;;;;;;5075900;28;20435;-50
2022/04/21 03:39:04;;;;;;;10.43;9.40;;;8.20;53.10;;;;;;5076323;28;20424;-47
2022/04/21 03:41:29;;;;;;;9.57;8.77;;;8.20;53.30;;;;;;5075602;28;20596;-46
2022/04/21 03:43:55;;;;;;;9.23;8.43;;;8.10;53.20;;;;;;5076218;28;20209;-47
2022/04/21 03:46:21;;;;;;;11.60;10.17;;;8.10;53.20;;;;;;5076574;28;20279;-47
2022/04/21 03:48:46;;;;;;;9.70;8.80;;;8.10;53.30;;;;;;5075193;28;20194;-47
2022/04/21 03:51:12;;;;;;;10.00;9.10;;;8.00;53.20;;;;;;5075618;28;20312;-46
2022/04/21 03:53:38;;;;;;;10.60;9.40;;;8.00;53.20;;;;;;5074337;28;20195;-47
2022/04/21 03:56:04;;;;;;;10.60;9.60;;;7.90;53.20;;;;;;5074400;28;20420;-46
2022/04/21 03:58:29;;;;;;;10.53;9.50;;;7.90;53.40;;;;;;5057669;28;20194;-46
2022/04/21 04:00:55;;;;;;;11.70;10.50;;;7.80;53.50;;;;;;5076217;28;20426;-47
2022/04/21 04:03:20;;;;;;;13.13;11.57;;;7.80;53.70;;;;;;5078576;28;20190;-47
2022/04/21 04:05:46;;;;;;;14.83;11.73;;;7.80;54.10;;;;;;5078641;28;20348;-47
2022/04/21 04:10:56;;;;;;;12.13;10.93;;;7.70;54.50;;;;;;5078220;28;20695;-47
2022/04/21 04:13:23;;;;;;;11.43;10.23;;;7.70;54.60;;;;;;5077945;28;20431;-47
2022/04/21 04:15:51;;;;;;;11.70;10.50;;;7.70;54.50;;;;;;5077540;28;20813;-47
2022/04/21 04:18:18;;;;;;;12.50;11.20;;;7.60;54.70;;;;;;5076931;28;20446;-47
2022/04/21 04:20:44;;;;;;;12.53;11.27;;;7.60;54.90;;;;;;5078320;28;20518;-47
2022/04/21 04:23:10;;;;;;;11.30;10.23;;;7.60;55.20;;;;;;5076230;28;20439;-47
2022/04/21 04:25:36;;;;;;;11.13;10.03;;;7.60;55.40;;;;;;5076828;28;20416;-47
2022/04/21 04:28:05;;;;;;;13.33;10.27;;;7.60;56.20;;;;;;5077112;28;20190;-47
2022/04/21 04:30:31;;;;;;;11.40;10.40;;;7.50;56.20;;;;;;5078069;28;20518;-46
2022/04/21 04:32:58;;;;;;;11.37;10.30;;;7.60;56.50;;;;;;5078331;28;21067;-46
2022/04/21 04:35:24;;;;;;;12.20;10.47;;;7.60;56.80;;;;;;5077731;28;20419;-47
2022/04/21 04:37:51;;;;;;;11.00;9.97;;;7.60;57.00;;;;;;5060559;28;20451;-47
2022/04/21 04:40:18;;;;;;;12.07;10.20;;;7.60;57.30;;;;;;5077778;28;20477;-47
2022/04/21 04:42:43;;;;;;;11.20;9.23;;;7.60;57.40;;;;;;5077706;28;20844;-50
2022/04/21 04:47:53;;;;;;;11.03;9.93;;;7.60;57.20;;;;;;5077754;28;20453;-47
2022/04/21 04:50:19;;;;;;;11.50;10.30;;;7.60;57.10;;;;;;5078361;28;20416;-46
2022/04/21 04:52:45;;;;;;;11.10;10.00;;;7.60;57.10;;;;;;5078675;28;20678;-47
2022/04/21 04:55:13;;;;;;;12.33;10.43;;;7.60;57.00;;;;;;5078782;28;20190;-47
2022/04/21 04:57:39;;;;;;;10.00;9.10;;;7.60;57.00;;;;;;5077440;28;20180;-47
2022/04/21 05:00:07;;;;;;;13.27;11.27;;;7.60;57.10;;;;;;5075845;28;20697;-47
2022/04/21 05:02:33;;;;;;;11.20;10.27;;;7.60;57.20;;;;;;5075836;28;20564;-47
2022/04/21 05:04:59;;;;;;;11.67;10.57;;;7.60;57.60;;;;;;5077026;28;20879;-47
2022/04/21 05:07:24;;;;;;;10.57;9.40;;;7.60;57.60;;;;;;5077988;28;20190;-47
2022/04/21 05:09:50;;;;;;;10.63;9.73;;;7.60;57.60;;;;;;5076217;28;20187;-46
2022/04/21 05:12:16;;;;;;;10.13;9.13;;;7.60;57.60;;;;;;5074485;28;20394;-46
2022/04/21 05:14:41;;;;;;;11.13;10.07;;;7.70;57.60;;;;;;5075254;28;20193;-47
2022/04/21 05:17:07;;;;;;;13.63;10.80;;;7.70;57.50;;;;;;5056390;28;20198;-47
2022/04/21 05:19:33;;;;;;;11.03;10.00;;;7.80;57.40;;;;;;5073382;28;20423;-47
2022/04/21 05:22:02;;;;;;;10.63;9.60;;;7.80;57.30;;;;;;5073205;28;20262;-47
2022/04/21 05:24:31;;;;;;;10.37;9.47;;;7.80;57.30;;;;;;5054971;28;20855;-47
2022/04/21 05:26:57;;;;;;;12.77;11.57;;;7.90;57.30;;;;;;5073081;28;20432;-46
2022/04/21 05:32:08;;;;;;;10.67;9.70;;;8.00;57.20;;;;;;5074211;28;20510;-46
2022/04/21 05:34:33;;;;;;;11.37;10.37;;;8.10;57.10;;;;;;5075702;28;20430;-47
2022/04/21 05:37:00;;;;;;;11.87;10.80;;;8.10;57.00;;;;;;5075282;28;20416;-46
2022/04/21 05:39:27;;;;;;;11.63;10.43;;;8.20;57.20;;;;;;5076295;28;20284;-47
2022/04/21 05:41:53;;;;;;;12.50;11.30;;;8.30;57.00;;;;;;5073576;28;20882;-47
2022/04/21 05:44:19;;;;;;;11.47;10.47;;;8.40;57.20;;;;;;5071963;28;20735;-46
2022/04/21 05:46:45;;;;;;;11.90;10.13;;;8.40;57.30;;;;;;5074179;28;20507;-47
2022/04/21 05:49:12;;;;;;;11.80;10.70;;;8.60;57.20;;;;;;5072868;28;20859;-47
2022/04/21 05:51:38;;;;;;;12.27;11.03;;;8.70;56.90;;;;;;5072678;28;20464;-47
2022/04/21 05:54:06;;;;;;;12.57;11.17;;;8.80;56.70;;;;;;5071825;28;20436;-48
2022/04/21 05:56:33;;;;;;;11.83;10.60;;;8.90;56.50;;;;;;5073889;28;20445;-47
2022/04/21 05:58:59;;;;;;;12.30;10.97;;;9.10;56.40;;;;;;5072170;28;20438;-47
2022/04/21 06:01:25;;;;;;;11.77;10.67;;;9.20;56.00;;;;;;5055760;28;20408;-47
2022/04/21 06:03:52;;;;;;;13.53;11.57;;;9.40;55.80;;;;;;5076014;28;20431;-47
2022/04/21 06:06:18;;;;;;;12.57;11.13;;;9.60;55.40;;;;;;5058085;28;20439;-47
2022/04/21 06:08:44;;;;;;;11.70;10.50;;;9.80;55.20;;;;;;5075356;28;20454;-48
2022/04/21 06:11:13;;;;;;;11.33;10.40;;;9.90;54.90;;;;;;5074699;28;20476;-48
2022/04/21 06:13:41;;;;;;;13.00;11.90;;;10.10;53.70;;;;;;5075157;28;20503;-48
2022/04/21 06:16:07;;;;;;;12.37;11.33;;;10.30;53.30;;;;;;5074839;28;20722;-47
2022/04/21 06:18:32;;;;;;;13.80;12.60;;;10.50;53.20;;;;;;5074774;28;20412;-47
2022/04/21 06:20:59;;;;;;;15.63;14.30;;;10.70;53.10;;;;;;5076019;28;20852;-47
2022/04/21 06:23:24;;;;;;;14.07;12.70;;;10.90;53.10;;;;;;5073543;28;20197;-47
2022/04/21 06:25:53;;;;;;;13.50;12.40;;;11.10;53.10;;;;;;5072113;28;20697;-48
2022/04/21 06:28:19;;;;;;;14.40;13.20;;;11.30;52.70;;;;;;5072063;28;20239;-48
2022/04/21 06:30:45;;;;;;;14.53;13.33;;;11.50;52.40;;;;;;5073830;28;20503;-47
2022/04/21 06:33:10;;;;;;;13.57;12.47;;;11.70;52.00;;;;;;5074758;28;20424;-47
2022/04/21 06:35:36;;;;;;;14.77;13.33;;;11.90;51.50;;;;;;5074895;28;20194;-47
2022/04/21 06:38:02;;;;;;;14.87;13.57;;;12.10;51.00;;;;;;5074863;28;20184;-47
2022/04/21 06:40:27;;;;;;;12.77;11.77;;;12.30;50.40;;;;;;5074276;28;20292;-48
2022/04/21 06:42:53;;;;;;;16.13;14.80;;;12.50;49.80;;;;;;5075128;28;20199;-48
2022/04/21 06:48:03;;;;;;;13.30;12.20;;;12.80;48.10;;;;;;5074331;28;20192;-47
2022/04/21 06:50:33;;;;;;;13.20;12.00;;;12.90;47.40;;;;;;5055152;28;20865;-48
2022/04/21 06:52:59;;;;;;;14.70;13.30;;;13.10;47.20;;;;;;5073600;28;20283;-47
2022/04/21 06:55:25;;;;;;;12.33;11.23;;;13.30;46.50;;;;;;5073592;28;20414;-48
2022/04/21 06:57:51;;;;;;;13.00;12.00;;;13.40;45.90;;;;;;5071921;28;20507;-48
2022/04/21 07:00:16;;;;;;;13.10;11.90;;;13.60;45.70;;;;;;5073077;28;20189;-48
2022/04/21 07:02:42;;;;;;;11.47;10.57;;;13.80;45.50;;;;;;5072741;28;20179;-47
2022/04/21 07:05:09;;;;;;;11.57;10.57;;;14.10;45.00;;;;;;5072676;28;20191;-45
2022/04/21 07:07:35;;;;;;;11.37;10.40;;;14.30;44.40;;;;;;5073378;28;20181;-44
2022/04/21 07:10:01;;;;;;;12.80;11.60;;;14.50;44.00;;;;;;5073061;28;20489;-44
2022/04/21 07:12:30;;;;;;;11.73;10.73;;;14.80;43.60;;;;;;5070208;28;20462;-48
2022/04/21 07:15:01;;;;;;;11.23;10.37;;;15.00;43.20;;;;;;5070880;28;20264;-46
2022/04/21 07:17:27;;;;;;;13.20;12.00;;;15.30;43.00;;;;;;5073083;28;20408;-44
2022/04/21 07:19:53;;;;;;;13.33;12.23;;;15.50;42.40;;;;;;5072139;28;20577;-47
2022/04/21 07:22:20;;;;;;;14.13;12.80;;;15.70;41.60;;;;;;5073341;28;20512;-46
2022/04/21 07:24:46;;;;;;;11.90;11.00;;;15.80;40.90;;;;;;5074413;28;20230;-47
2022/04/21 07:27:12;;;;;;;12.97;11.97;;;15.80;40.40;;;;;;5074432;28;20415;-43
2022/04/21 07:29:38;;;;;;;13.47;12.27;;;15.80;40.30;;;;;;5054070;28;20440;-46
2022/04/21 07:32:04;;;;;;;14.13;12.83;;;15.90;40.20;;;;;;5070514;28;21036;-46
2022/04/21 07:34:30;;;;;;;10.80;9.90;;;16.00;40.10;;;;;;5072599;28;20577;-46
2022/04/21 07:36:56;;;;;;;10.00;9.20;;;16.20;40.20;;;;;;5077475;28;20420;-44
2022/04/21 07:39:21;;;;;;;11.93;10.87;;;16.50;40.20;;;;;;5075852;28;20610;-47
2022/04/21 07:41:47;;;;;;;13.10;11.47;;;16.80;40.00;;;;;;5075536;28;20237;-45
2022/04/21 07:44:13;;;;;;;12.70;11.70;;;17.10;39.60;;;;;;5074561;28;20188;-44
2022/04/21 07:46:38;;;;;;;11.70;10.70;;;17.30;38.50;;;;;;5074543;28;20192;-44
2022/04/21 07:51:48;;;;;;;10.67;9.60;;;17.50;37.60;;;;;;5074343;28;20268;-49
2022/04/21 07:54:14;;;;;;;12.80;11.50;;;17.70;37.80;;;;;;5072842;28;20607;-47
2022/04/21 07:56:40;;;;;;;10.40;9.40;;;17.80;37.50;;;;;;5072985;28;20250;-47
2022/04/21 07:59:05;;;;;;;12.73;9.67;;;18.00;37.60;;;;;;5072454;28;20625;-44
2022/04/21 08:01:31;;;;;;;9.00;8.20;;;18.30;37.70;;;;;;5072464;28;20178;-45
2022/04/21 08:04:02;;;;;;;10.03;9.07;;;18.70;37.70;;;;;;5055270;28;20190;-45
2022/04/21 08:06:28;;;;;;;11.37;10.27;;;19.00;37.50;;;;;;5074375;28;20591;-45
2022/04/21 08:08:55;;;;;;;9.80;9.00;;;19.40;37.10;;;;;;5074336;28;20453;-46
2022/04/21 08:11:21;;;;;;;10.90;10.00;;;19.70;36.40;;;;;;5075743;28;20475;-47
2022/04/21 08:13:47;;;;;;;9.90;9.00;;;19.90;35.30;;;;;;5076844;28;20500;-53
2022/04/21 08:16:13;;;;;;;11.67;10.67;;;20.00;34.50;;;;;;5042146;28;20428;-44
2022/04/21 08:18:39;;;;;;;10.63;9.53;;;20.10;34.00;;;;;;5075984;28;20489;-44
2022/04/21 08:21:05;;;;;;;9.63;8.63;;;20.20;34.10;;;;;;5058579;28;20428;-43
2022/04/21 08:23:35;;;;;;;10.90;10.03;;;20.40;34.20;;;;;;5076789;28;20412;-46
2022/04/21 08:34:04;;;;;;;10.23;9.33;;;21.20;33.50;;;;;;5060464;28;20776;-43
2022/04/21 08:36:29;;;;;;;8.90;8.03;;;21.50;33.10;;;;;;5074495;28;20461;-47
2022/04/21 08:38:55;;;;;;;11.07;10.03;;;21.60;32.80;;;;;;5076025;28;20176;-46
2022/04/21 08:41:26;;;;;;;11.50;8.70;;;21.80;33.10;;;;;;5075797;28;20513;-46
2022/04/21 08:43:54;;;;;;;9.37;8.47;;;22.00;32.90;;;;;;5074937;28;20238;-43
2022/04/21 08:46:25;;;;;;;12.33;11.27;;;22.20;32.90;;;;;;5073972;28;20432;-43
2022/04/21 08:48:51;;;;;;;12.03;10.83;;;22.40;32.40;;;;;;5075245;28;20477;-45
2022/04/21 08:51:19;;;;;;;12.80;11.70;;;22.40;32.10;;;;;;5058899;28;20490;-44
2022/04/21 08:53:44;;;;;;;12.17;11.27;;;22.40;31.90;;;;;;5056843;28;20442;-44
2022/04/21 08:56:10;;;;;;;13.70;12.60;;;22.50;32.00;;;;;;5072909;28;20462;-44
2022/04/21 08:58:36;;;;;;;12.17;11.10;;;22.40;31.80;;;;;;5055154;28;20497;-44
2022/04/21 09:01:02;;;;;;;12.07;10.97;;;22.40;31.90;;;;;;5073746;28;20172;-45
2022/04/21 09:03:27;;;;;;;12.83;11.73;;;22.50;32.10;;;;;;5074288;28;20180;-46
2022/04/21 09:05:53;;;;;;;11.87;10.97;;;22.60;32.10;;;;;;5076048;28;20203;-43
2022/04/21 09:08:20;;;;;;;10.60;9.57;;;22.80;32.00;;;;;;5075627;28;20204;-47
2022/04/21 09:10:45;;;;;;;9.70;8.53;;;22.90;31.80;;;;;;5073841;28;20183;-44
2022/04/21 09:13:11;;;;;;;9.30;8.40;;;23.20;31.90;;;;;;5074559;28;20412;-45
2022/04/21 09:15:37;;;;;;;8.30;7.50;;;23.40;31.60;;;;;;5075901;28;20200;-45
2022/04/21 09:18:12;;;;;;;10.73;9.73;;;23.70;31.40;;;;;;5076332;28;20281;-43
2022/04/21 09:20:43;;;;;;;9.23;7.97;;;24.00;30.40;;;;;;5075511;28;20224;-45
2022/04/21 09:23:12;;;;;;;7.73;7.03;;;24.40;30.50;;;;;;5056797;28;20706;-45
2022/04/21 09:25:57;;;;;;;7.43;6.73;;;24.90;30.40;;;;;;5075067;28;20513;-45
2022/04/21 09:28:27;;;;;;;8.10;7.50;;;25.20;29.80;;;;;;5076416;28;20673;-45
2022/04/21 09:30:56;;;;;;;8.80;8.10;;;25.60;29.40;;;;;;5055716;28;20712;-46
2022/04/21 09:33:35;;;;;;;10.47;9.67;;;25.90;29.40;;;;;;5055708;28;20499;-46
2022/04/21 09:36:02;;;;;;;8.27;7.63;;;26.00;28.90;;;;;;5073770;28;20434;-44
2022/04/21 09:38:28;;;;;;;7.77;7.07;;;26.30;28.90;;;;;;5074433;28;20425;-45
2022/04/21 09:40:54;;;;;;;9.03;8.30;;;26.50;29.10;;;;;;5057693;28;20917;-45
2022/04/21 09:43:28;;;;;;;10.67;9.70;;;26.70;29.20;;;;;;5055551;28;20178;-44
2022/04/21 09:46:09;;;;;;;9.03;8.33;;;26.90;28.70;;;;;;5054986;28;20441;-45
2022/04/21 09:48:35;;;;;;;9.57;8.77;;;27.10;28.50;;;;;;5056061;28;20422;-45
2022/04/21 09:51:15;;;;;;;8.07;7.50;;;27.40;28.30;;;;;;5055765;28;20391;-45
2022/04/21 09:54:00;;;;;;;10.23;9.50;;;27.60;28.10;;;;;;5041231;28;20417;-44
2022/04/21 09:56:44;;;;;;;9.30;8.50;;;27.90;28.00;;;;;;5067949;28;20864;-45
2022/04/21 09:59:11;;;;;;;9.07;8.27;;;28.10;27.80;;;;;;5061865;28;20432;-44
2022/04/21 10:01:39;;;;;;;7.50;7.00;;;28.50;27.80;;;;;;5060560;28;20449;-48
2022/04/21 10:04:09;;;;;;;7.97;7.37;;;28.80;27.80;;;;;;5066055;28;20420;-45
2022/04/21 10:06:42;;;;;;;7.40;6.80;;;29.00;27.90;;;;;;5068661;28;20704;-45
2022/04/21 10:09:08;;;;;;;8.30;7.60;;;29.20;27.60;;;;;;5062123;28;20417;-47
2022/04/21 10:11:38;;;;;;;7.27;6.63;;;29.50;27.30;;;;;;5059611;28;20448;-44
2022/04/21 10:14:05;;;;;;;7.20;6.63;;;29.80;27.40;;;;;;5066472;28;20408;-44
2022/04/21 10:16:31;;;;;;;8.03;7.33;;;29.90;27.10;;;;;;5067374;28;20406;-46
2022/04/21 10:18:58;;;;;;;7.03;6.33;;;29.90;27.10;;;;;;5059014;28;20394;-46
2022/04/21 10:21:36;;;;;;;7.50;6.90;;;30.10;27.10;;;;;;5039390;28;20407;-46
2022/04/21 10:24:02;;;;;;;8.23;6.90;;;30.50;27.00;;;;;;5057320;28;20672;-45
2022/04/21 10:26:40;;;;;;;7.70;7.00;;;30.90;26.80;;;;;;5055211;28;20436;-46
2022/04/21 10:29:23;;;;;;;7.63;6.60;;;31.10;26.50;;;;;;5039070;28;20661;-43
2022/04/21 10:31:59;;;;;;;7.27;6.60;;;31.30;26.20;;;;;;5056627;28;20453;-45
2022/04/21 10:34:40;;;;;;;7.60;6.90;;;31.60;26.30;;;;;;5061932;28;20395;-44
2022/04/21 10:37:10;;;;;;;6.13;5.73;;;31.80;26.10;;;;;;5066341;28;20692;-45
2022/04/21 10:39:35;;;;;;;8.47;7.60;;;32.00;26.10;;;;;;5055826;28;20407;-46
2022/04/21 10:42:11;;;;;;;7.27;6.57;;;32.10;25.90;;;;;;5051386;28;20448;-45
2022/04/21 10:44:49;;;;;;;6.90;6.40;;;32.10;25.80;;;;;;5020704;28;20191;-45
2022/04/21 10:47:35;;;;;;;7.87;7.03;;;32.30;25.90;;;;;;5055803;28;20944;-47
2022/04/21 10:50:01;;;;;;;8.60;7.70;;;32.80;25.90;;;;;;5019794;28;20427;-44
2022/04/21 10:57:53;;;;;;;7.27;6.63;;;34.10;25.50;;;;;;5071777;28;20849;-44
2022/04/21 11:00:30;;;;;;;7.40;6.80;;;34.40;25.20;;;;;;5037692;28;20425;-43
2022/04/21 11:03:09;;;;;;;7.23;6.63;;;34.80;25.10;;;;;;5053466;28;20742;-47
2022/04/21 11:05:37;;;;;;;6.70;6.10;;;35.00;24.90;;;;;;5069405;28;20430;-47
2022/04/21 11:08:10;;;;;;;7.70;7.10;;;35.20;24.80;;;;;;5056911;28;20422;-46
2022/04/21 11:10:39;;;;;;;6.10;5.60;;;35.30;24.50;;;;;;5045733;28;20395;-44
2022/04/21 11:13:12;;;;;;;6.13;5.73;;;35.20;24.40;;;;;;5066047;28;20489;-45
2022/04/21 11:15:49;;;;;;;5.83;5.43;;;35.10;24.50;;;;;;5056633;28;20416;-42
2022/04/21 11:18:26;;;;;;;6.33;5.60;;;34.70;24.50;;;;;;5056608;28;20446;-42
2022/04/21 11:20:52;;;;;;;5.83;5.33;;;34.00;24.60;;;;;;5044849;28;20449;-44
2022/04/21 11:23:31;;;;;;;5.30;4.90;;;33.30;24.70;;;;;;5067665;28;20427;-46
2022/04/21 11:26:05;;;;;;;5.30;4.80;;;32.80;24.90;;;;;;5056275;28;20458;-44
2022/04/21 11:28:32;;;;;;;5.63;5.13;;;33.10;25.10;;;;;;5064517;28;20398;-43
2022/04/21 11:31:04;;;;;;;5.43;5.03;;;33.70;25.40;;;;;;5065073;28;20925;-45
2022/04/21 11:33:33;;;;;;;5.93;5.37;;;34.30;25.10;;;;;;5057999;28;20398;-45
2022/04/21 11:36:13;;;;;;;4.57;4.23;;;34.60;24.70;;;;;;5057611;28;20522;-46
2022/04/21 11:38:47;;;;;;;5.20;4.70;;;34.40;24.70;;;;;;5064042;28;20946;-46
2022/04/21 11:41:14;;;;;;;7.73;4.43;;;34.30;24.70;;;;;;5067899;28;20475;-46
2022/04/21 11:43:47;;;;;;;5.07;4.67;;;34.00;24.70;;;;;;5055429;28;20764;-46
2022/04/21 11:46:13;;;;;;;4.70;4.30;;;33.40;24.90;;;;;;5050302;28;20711;-46
2022/04/21 11:48:40;;;;;;;5.17;4.80;;;32.80;25.10;;;;;;5061932;28;20400;-46
2022/04/21 11:51:08;;;;;;;4.63;4.17;;;32.60;25.30;;;;;;5042850;28;20200;-45
2022/04/21 11:53:36;;;;;;;4.27;3.97;;;33.00;25.20;;;;;;5071608;28;20417;-47
2022/04/21 11:56:03;;;;;;;4.70;4.40;;;33.70;25.30;;;;;;5040655;28;20406;-45
2022/04/21 11:58:41;;;;;;;5.50;4.63;;;34.20;25.10;;;;;;5065268;28;20447;-45
2022/04/21 12:06:50;;;;;;;4.67;4.20;;;36.30;24.30;;;;;;5050855;28;20431;-48
2022/04/21 12:09:17;;;;;;;4.57;4.27;;;36.90;24.20;;;;;;5068907;28;20491;-47
2022/04/21 12:11:51;;;;;;;4.80;4.40;;;37.20;24.10;;;;;;5068258;28;20755;-46
2022/04/21 12:14:17;;;;;;;4.60;3.83;;;37.30;24.00;;;;;;5067782;28;20515;-46
2022/04/21 12:16:53;;;;;;;4.63;4.23;;;37.30;24.00;;;;;;5048970;28;20433;-47
2022/04/21 12:19:32;;;;;;;4.27;4.00;;;36.90;24.00;;;;;;5070550;28;20413;-45
2022/04/21 12:22:03;;;;;;;4.17;3.87;;;36.60;23.90;;;;;;5072609;28;20475;-44
2022/04/21 12:24:43;;;;;;;3.97;3.63;;;36.60;23.90;;;;;;5075786;28;20660;-47
2022/04/21 12:27:13;;;;;;;4.23;3.80;;;36.90;24.10;;;;;;5058441;28;20433;-47
2022/04/21 12:30:06;;;;;;;4.80;4.50;;;36.80;23.80;;;;;;5073268;28;20778;-47
2022/04/21 12:32:33;;;;;;;4.60;4.20;;;36.30;23.80;;;;;;5072140;28;20788;-44
2022/04/21 12:35:06;;;;;;;4.90;3.90;;;35.80;23.90;;;;;;5042621;28;20938;-42
2022/04/21 12:37:35;;;;;;;5.00;3.40;;;36.00;24.20;;;;;;5058729;28;20411;-46
2022/04/21 12:40:07;;;;;;;4.40;4.00;;;36.50;24.10;;;;;;5057757;28;20487;-47
2022/04/21 12:42:35;;;;;;;3.70;3.40;;;36.80;23.70;;;;;;5073856;28;20454;-46
2022/04/21 12:45:01;;;;;;;3.30;3.00;;;37.10;23.40;;;;;;5057380;28;20429;-44
2022/04/21 12:47:27;;;;;;;3.40;3.20;;;37.20;23.30;;;;;;5057419;28;20454;-45
2022/04/21 12:50:01;;;;;;;3.10;2.47;;;36.90;23.50;;;;;;5074506;28;20409;-45
2022/04/21 12:52:34;;;;;;;4.27;3.20;;;36.50;23.80;;;;;;5075189;28;20213;-45
2022/04/21 12:55:01;;;;;;;3.10;2.80;;;36.30;24.00;;;;;;5076320;28;20439;-49
2022/04/21 12:57:27;;;;;;;3.73;3.43;;;35.80;24.00;;;;;;5075294;28;20445;-45
2022/04/21 12:59:56;;;;;;;2.57;2.37;;;34.90;24.10;;;;;;5076131;28;20428;-45
2022/04/21 13:02:22;;;;;;;3.30;2.70;;;34.10;24.30;;;;;;5076348;28;20418;-51
2022/04/21 13:04:48;;;;;;;2.30;2.10;;;33.60;24.80;;;;;;5058599;28;20418;-46
2022/04/21 13:07:15;;;;;;;2.77;2.53;;;33.70;25.00;;;;;;5078955;28;20437;-44
2022/04/21 13:09:41;;;;;;;6.90;2.60;;;34.00;24.80;;;;;;5078415;28;20707;-45
2022/04/21 13:12:08;;;;;;;2.23;2.03;;;34.60;24.60;;;;;;5078773;28;20218;-43
2022/04/21 13:14:33;;;;;;;2.67;2.10;;;35.10;24.50;;;;;;5059099;28;20290;-47
2022/04/21 13:16:59;;;;;;;1.80;1.60;;;35.50;24.30;;;;;;5076074;28;20837;-48
2022/04/21 13:19:25;;;;;;;1.87;1.77;;;35.80;24.00;;;;;;5075699;28;20187;-43
2022/04/21 13:21:55;;;;;;;2.10;1.80;;;36.10;23.80;;;;;;5058073;28;20228;-45
2022/04/21 13:24:28;;;;;;;2.03;1.93;;;36.40;23.60;;;;;;5074176;28;21003;-45
2022/04/21 13:26:55;;;;;;;1.90;1.80;;;36.80;23.40;;;;;;5075189;28;20498;-47
2022/04/21 13:29:21;;;;;;;1.73;1.63;;;37.30;23.00;;;;;;5058510;28;20470;-45
2022/04/21 13:34:35;;;;;;;3.20;2.03;;;37.80;22.80;;;;;;5055903;28;20548;-45
2022/04/21 13:37:02;;;;;;;2.07;1.97;;;37.90;22.80;;;;;;5070506;28;20405;-48